Time;durP1;ratioP1;P1;durP2;ratioP2;P2;SDS_P1;SDS_P2;PMS_P1;PMS_P2;Temp;Humidity;BMP_temperature;BMP_pressure;BME280_temperature;BME280_humidity;BME280_pressure;Samples;Min_cycle;Max_cycle;Signal;HPM_P1;HPM_P2
2022/01/19 00:00:10;;;;;;;96.47;26.02;;;;;;;;;;5025100;28;20457;-67
2022/01/19 00:02:36;;;;;;;96.05;26.00;;;;;;;;;;5044542;28;20077;-66
2022/01/19 00:05:03;;;;;;;86.07;25.80;;;;;;;;;;5043626;28;20037;-67
2022/01/19 00:07:29;;;;;;;97.18;24.77;;;;;;;;;;5043943;28;20037;-67
2022/01/19 00:09:55;;;;;;;94.10;26.33;;;;;;;;;;5027018;28;20095;-67
2022/01/19 00:12:21;;;;;;;100.85;27.48;;;;;;;;;;5026422;28;20043;-68
2022/01/19 00:14:47;;;;;;;93.72;24.77;;;;;;;;;;5042955;28;20040;-68
2022/01/19 00:17:13;;;;;;;93.68;26.10;;;;;;;;;;5027577;28;20124;-67
2022/01/19 00:19:39;;;;;;;97.38;24.77;;;;;;;;;;5044798;28;20045;-67
2022/01/19 00:22:05;;;;;;;88.68;24.35;;;;;;;;;;5046296;28;20103;-67
2022/01/19 00:24:31;;;;;;;88.53;25.75;;;;;;;;;;5054839;28;20076;-67
2022/01/19 00:26:57;;;;;;;87.43;24.65;;;;;;;;;;5054782;28;20037;-67
2022/01/19 00:29:23;;;;;;;77.20;22.60;;;;;;;;;;5053252;28;20467;-67
2022/01/19 00:31:49;;;;;;;80.15;22.55;;;;;;;;;;5053385;28;20041;-67
2022/01/19 00:34:15;;;;;;;80.30;22.80;;;;;;;;;;5054671;28;20044;-67
2022/01/19 00:36:41;;;;;;;74.78;22.48;;;;;;;;;;5053059;28;20052;-67
2022/01/19 00:39:07;;;;;;;83.07;23.70;;;;;;;;;;5054539;28;20061;-67
2022/01/19 00:41:33;;;;;;;67.80;20.90;;;;;;;;;;5053455;28;20514;-67
2022/01/19 00:43:59;;;;;;;68.38;22.95;;;;;;;;;;5053227;28;20052;-67
2022/01/19 00:46:25;;;;;;;74.57;21.92;;;;;;;;;;5053381;28;20045;-67
2022/01/19 00:48:51;;;;;;;68.28;21.40;;;;;;;;;;5053402;28;20048;-67
2022/01/19 00:51:17;;;;;;;72.45;22.48;;;;;;;;;;5054323;28;20131;-67
2022/01/19 00:53:43;;;;;;;59.70;20.67;;;;;;;;;;5054169;28;20067;-67
2022/01/19 00:56:08;;;;;;;61.25;20.85;;;;;;;;;;5054691;28;20037;-67
2022/01/19 00:58:34;;;;;;;59.47;19.08;;;;;;;;;;5036138;28;20392;-67
2022/01/19 01:01:00;;;;;;;66.18;20.35;;;;;;;;;;5054207;28;20051;-67
2022/01/19 01:03:26;;;;;;;70.38;19.70;;;;;;;;;;5054349;28;20037;-67
2022/01/19 01:05:52;;;;;;;64.35;19.20;;;;;;;;;;5052725;28;20075;-67
2022/01/19 01:08:18;;;;;;;58.53;19.30;;;;;;;;;;5036503;28;20098;-67
2022/01/19 01:10:45;;;;;;;53.63;17.30;;;;;;;;;;5052794;28;20052;-67
2022/01/19 01:15:59;;;;;;;62.92;18.13;;;;;;;;;;5052929;28;20053;-67
2022/01/19 01:18:26;;;;;;;58.30;18.13;;;;;;;;;;5052803;28;20502;-67
2022/01/19 01:20:53;;;;;;;60.78;18.30;;;;;;;;;;5053593;28;20073;-68
2022/01/19 01:23:21;;;;;;;62.95;17.02;;;;;;;;;;5053789;28;20053;-67
2022/01/19 01:25:47;;;;;;;54.15;16.95;;;;;;;;;;5052701;28;20048;-66
2022/01/19 01:28:14;;;;;;;64.10;18.52;;;;;;;;;;5054041;28;20057;-67
2022/01/19 01:30:40;;;;;;;57.75;17.85;;;;;;;;;;5053762;28;20158;-66
2022/01/19 01:33:06;;;;;;;57.35;17.00;;;;;;;;;;5053696;28;20483;-67
2022/01/19 01:35:33;;;;;;;62.85;17.65;;;;;;;;;;5035557;28;20053;-67
2022/01/19 01:37:59;;;;;;;84.45;21.73;;;;;;;;;;5052407;28;20093;-66
2022/01/19 01:40:26;;;;;;;91.32;21.67;;;;;;;;;;5053649;28;20521;-66
2022/01/19 01:42:56;;;;;;;74.63;20.70;;;;;;;;;;5035544;28;20075;-66
2022/01/19 01:45:27;;;;;;;86.80;21.92;;;;;;;;;;5052174;28;20079;-66
2022/01/19 01:48:03;;;;;;;100.07;22.63;;;;;;;;;;5052400;28;20053;-67
2022/01/19 01:53:27;;;;;;;76.68;20.00;;;;;;;;;;5053471;28;20048;-66
2022/01/19 01:55:57;;;;;;;71.82;19.77;;;;;;;;;;5053404;28;20080;-66
2022/01/19 01:58:23;;;;;;;82.45;22.08;;;;;;;;;;5035292;28;20080;-66
2022/01/19 02:00:49;;;;;;;71.60;20.38;;;;;;;;;;5035234;28;20052;-66
2022/01/19 02:03:15;;;;;;;74.95;21.20;;;;;;;;;;5052968;28;20053;-66
2022/01/19 02:06:07;;;;;;;73.68;21.85;;;;;;;;;;5035213;28;20098;-66
2022/01/19 02:08:36;;;;;;;89.32;23.48;;;;;;;;;;5051847;28;20056;-66
2022/01/19 02:11:29;;;;;;;85.53;21.48;;;;;;;;;;5053115;28;20510;-67
2022/01/19 02:21:57;;;;;;;104.07;24.80;;;;;;;;;;5053013;28;20045;-67
2022/01/19 02:24:27;;;;;;;109.88;25.92;;;;;;;;;;5051590;28;20060;-67
2022/01/19 02:40:26;;;;;;;99.10;24.25;;;;;;;;;;5040419;28;20056;-67
2022/01/19 02:50:38;;;;;;;119.25;25.33;;;;;;;;;;5055601;28;20456;-67
2022/01/19 02:53:04;;;;;;;120.00;26.80;;;;;;;;;;5055819;28;20045;-67
2022/01/19 02:55:32;;;;;;;135.18;28.88;;;;;;;;;;5038612;28;20151;-67
2022/01/19 02:57:58;;;;;;;115.25;26.52;;;;;;;;;;5055422;28;20056;-67
2022/01/19 03:11:10;;;;;;;132.00;29.17;;;;;;;;;;5056354;28;20041;-67
2022/01/19 03:13:36;;;;;;;120.00;28.83;;;;;;;;;;5056129;28;20115;-67
2022/01/19 03:16:02;;;;;;;129.50;27.38;;;;;;;;;;5056009;28;20483;-67
2022/01/19 03:18:28;;;;;;;133.93;29.77;;;;;;;;;;5054682;28;20049;-67
2022/01/19 03:20:54;;;;;;;134.10;27.45;;;;;;;;;;5056205;28;20048;-67
2022/01/19 03:23:20;;;;;;;132.23;28.33;;;;;;;;;;5056052;28;20044;-67
2022/01/19 03:25:50;;;;;;;143.82;28.00;;;;;;;;;;5054623;28;20549;-67
2022/01/19 03:28:17;;;;;;;129.32;27.50;;;;;;;;;;5056170;28;20512;-67
2022/01/19 03:30:43;;;;;;;157.85;30.17;;;;;;;;;;5056111;28;20087;-67
2022/01/19 03:33:10;;;;;;;159.88;29.10;;;;;;;;;;5056600;28;20360;-67
2022/01/19 03:35:38;;;;;;;194.52;31.55;;;;;;;;;;5054576;28;20052;-67
2022/01/19 03:38:04;;;;;;;151.95;29.58;;;;;;;;;;5055764;28;20053;-67
2022/01/19 03:40:30;;;;;;;256.15;34.35;;;;;;;;;;5054581;28;20067;-67
2022/01/19 03:42:56;;;;;;;282.77;35.53;;;;;;;;;;5038006;28;20479;-67
2022/01/19 03:45:22;;;;;;;482.00;41.33;;;;;;;;;;5055435;28;20048;-67
2022/01/19 03:48:25;;;;;;;421.92;40.20;;;;;;;;;;5055502;28;20040;-67
2022/01/19 03:50:51;;;;;;;203.43;28.40;;;;;;;;;;5054029;28;20048;-67
2022/01/19 03:53:17;;;;;;;527.72;41.53;;;;;;;;;;5055433;28;20040;-67
2022/01/19 03:55:43;;;;;;;385.55;33.03;;;;;;;;;;5055736;28;20053;-67
2022/01/19 03:58:09;;;;;;;192.38;26.02;;;;;;;;;;5055279;28;20048;-67
2022/01/19 04:00:42;;;;;;;317.98;31.55;;;;;;;;;;5056066;28;20076;-67
2022/01/19 04:03:11;;;;;;;378.73;36.45;;;;;;;;;;5056315;28;20452;-67
2022/01/19 04:05:42;;;;;;;485.70;38.75;;;;;;;;;;5055571;28;20045;-67
2022/01/19 04:08:09;;;;;;;235.18;27.15;;;;;;;;;;5054990;28;20124;-67
2022/01/19 04:10:35;;;;;;;167.38;26.02;;;;;;;;;;5054947;28;20049;-67
2022/01/19 04:15:46;;;;;;;474.50;39.85;;;;;;;;;;5055009;28;20060;-67
2022/01/19 04:18:13;;;;;;;247.40;30.85;;;;;;;;;;5055055;28;20049;-67
2022/01/19 04:20:42;;;;;;;465.58;39.78;;;;;;;;;;5053637;28;20081;-67
2022/01/19 04:23:07;;;;;;;;;;;;;;;;;;5054247;28;20119;-68
2022/01/19 04:25:34;;;;;;;398.23;37.58;;;;;;;;;;5036932;28;20366;-67
2022/01/19 04:28:06;;;;;;;514.13;42.90;;;;;;;;;;5053844;28;20037;-67
2022/01/19 04:30:32;;;;;;;357.90;34.63;;;;;;;;;;5053507;28;20053;-68
2022/01/19 04:35:27;;;;;;;195.63;27.13;;;;;;;;;;5054673;28;20075;-66
2022/01/19 04:46:34;;;;;;;520.90;42.63;;;;;;;;;;5053381;28;20115;-66
2022/01/19 05:02:33;;;;;;;428.10;36.85;;;;;;;;;;5053932;28;20083;-67
2022/01/19 05:05:12;;;;;;;430.67;34.97;;;;;;;;;;5055487;28;20228;-66
2022/01/19 05:07:43;;;;;;;521.75;38.83;;;;;;;;;;5054199;28;20079;-66
2022/01/19 05:15:38;;;;;;;550.10;41.15;;;;;;;;;;5052819;28;20048;-66
2022/01/19 05:18:05;;;;;;;472.65;37.42;;;;;;;;;;5053093;28;20394;-66
2022/01/19 05:20:31;;;;;;;481.48;37.17;;;;;;;;;;5052589;28;20060;-66
2022/01/19 05:22:57;;;;;;;400.75;34.42;;;;;;;;;;5052267;28;20041;-66
2022/01/19 05:25:23;;;;;;;263.35;27.88;;;;;;;;;;5052332;28;20392;-66
2022/01/19 05:27:49;;;;;;;365.52;29.73;;;;;;;;;;5052699;28;20060;-66
2022/01/19 05:30:17;;;;;;;392.60;34.25;;;;;;;;;;5052548;28;20049;-67
2022/01/19 05:32:43;;;;;;;192.55;24.17;;;;;;;;;;5053445;28;20048;-67
2022/01/19 05:35:09;;;;;;;293.38;29.40;;;;;;;;;;5035627;28;20080;-67
2022/01/19 05:37:36;;;;;;;380.08;32.42;;;;;;;;;;5052069;28;20140;-67
2022/01/19 05:40:07;;;;;;;416.15;34.20;;;;;;;;;;5052039;28;20056;-67
2022/01/19 05:42:33;;;;;;;421.15;33.92;;;;;;;;;;5052338;28;20132;-67
2022/01/19 05:44:59;;;;;;;251.60;27.83;;;;;;;;;;5052151;28;20080;-67
2022/01/19 05:47:25;;;;;;;543.70;42.08;;;;;;;;;;5052067;28;20076;-67
2022/01/19 05:49:51;;;;;;;425.55;38.88;;;;;;;;;;5036000;28;20044;-67
2022/01/19 05:52:17;;;;;;;106.25;22.40;;;;;;;;;;5053217;28;20447;-67
2022/01/19 05:54:43;;;;;;;307.38;32.30;;;;;;;;;;5053585;28;20041;-67
2022/01/19 05:57:09;;;;;;;238.27;30.20;;;;;;;;;;5053134;28;20045;-67
2022/01/19 05:59:36;;;;;;;393.20;36.42;;;;;;;;;;5052264;28;20044;-67
2022/01/19 06:02:02;;;;;;;338.05;36.10;;;;;;;;;;5051824;28;20041;-67
2022/01/19 06:04:28;;;;;;;308.80;35.05;;;;;;;;;;5053279;28;20052;-67
2022/01/19 06:06:56;;;;;;;191.60;30.20;;;;;;;;;;5034997;28;20045;-67
2022/01/19 06:09:34;;;;;;;184.23;30.30;;;;;;;;;;5052116;28;20045;-67
2022/01/19 06:12:05;;;;;;;130.43;28.70;;;;;;;;;;5052946;28;20040;-66
2022/01/19 06:14:31;;;;;;;157.90;31.27;;;;;;;;;;5052112;28;20048;-66
2022/01/19 06:16:58;;;;;;;233.68;37.15;;;;;;;;;;5051695;28;20076;-66
2022/01/19 06:19:24;;;;;;;172.00;33.08;;;;;;;;;;5053376;28;20502;-66
2022/01/19 06:21:50;;;;;;;159.02;32.85;;;;;;;;;;5052928;28;20040;-67
2022/01/19 06:24:16;;;;;;;159.27;34.25;;;;;;;;;;5051935;28;20464;-67
2022/01/19 06:26:42;;;;;;;138.52;32.80;;;;;;;;;;5053133;28;20132;-67
2022/01/19 06:29:08;;;;;;;164.77;36.28;;;;;;;;;;5053097;28;20083;-67
2022/01/19 06:31:34;;;;;;;144.30;36.47;;;;;;;;;;5051968;28;20045;-67
2022/01/19 06:34:00;;;;;;;168.50;37.20;;;;;;;;;;5052782;28;20041;-67
2022/01/19 06:36:26;;;;;;;167.68;39.13;;;;;;;;;;5052940;28;20415;-66
2022/01/19 06:38:52;;;;;;;162.27;37.53;;;;;;;;;;5051405;28;20238;-66
2022/01/19 06:41:18;;;;;;;145.20;36.40;;;;;;;;;;5052737;28;20049;-67
2022/01/19 06:43:45;;;;;;;139.48;36.58;;;;;;;;;;5051678;28;20376;-67
2022/01/19 06:46:11;;;;;;;134.85;37.28;;;;;;;;;;5051522;28;20426;-66
2022/01/19 06:48:37;;;;;;;138.63;35.22;;;;;;;;;;5052652;28;20037;-66
2022/01/19 06:51:03;;;;;;;117.95;33.53;;;;;;;;;;5051744;28;20084;-66
2022/01/19 06:53:29;;;;;;;113.75;33.05;;;;;;;;;;5051740;28;20075;-67
2022/01/19 06:55:57;;;;;;;110.53;33.78;;;;;;;;;;5051548;28;20064;-66
2022/01/19 06:58:27;;;;;;;105.83;33.13;;;;;;;;;;5052756;28;20092;-66
2022/01/19 07:00:53;;;;;;;99.20;34.03;;;;;;;;;;5051220;28;20292;-67
2022/01/19 07:03:19;;;;;;;97.53;35.28;;;;;;;;;;5051515;28;20060;-66
2022/01/19 07:05:45;;;;;;;99.90;33.85;;;;;;;;;;5051367;28;20044;-66
2022/01/19 07:08:11;;;;;;;100.40;36.50;;;;;;;;;;5051555;28;20120;-66
2022/01/19 07:10:37;;;;;;;99.80;37.33;;;;;;;;;;5052912;28;20119;-66
2022/01/19 07:13:04;;;;;;;94.28;35.97;;;;;;;;;;5052794;28;20049;-66
2022/01/19 07:15:30;;;;;;;115.03;39.92;;;;;;;;;;5053394;28;20048;-66
2022/01/19 07:17:56;;;;;;;87.80;34.60;;;;;;;;;;5051703;28;20098;-66
2022/01/19 07:20:23;;;;;;;135.80;42.45;;;;;;;;;;5055259;28;20080;-66
2022/01/19 07:22:49;;;;;;;117.43;39.28;;;;;;;;;;5038677;28;20045;-66
2022/01/19 07:25:16;;;;;;;138.38;43.17;;;;;;;;;;5055059;28;20056;-67
2022/01/19 07:27:42;;;;;;;98.20;39.08;;;;;;;;;;5038449;28;20045;-66
2022/01/19 07:30:09;;;;;;;88.32;35.78;;;;;;;;;;5054886;28;20114;-67
2022/01/19 07:32:35;;;;;;;115.32;38.90;;;;;;;;;;5056149;28;20434;-67
2022/01/19 07:35:02;;;;;;;90.40;38.35;;;;;;;;;;5054626;28;20057;-67
2022/01/19 07:37:28;;;;;;;84.00;37.30;;;;;;;;;;5054425;28;20053;-66
2022/01/19 07:39:54;;;;;;;88.50;38.67;;;;;;;;;;5054765;28;20125;-67
2022/01/19 07:42:20;;;;;;;133.55;45.10;;;;;;;;;;5054581;28;20049;-66
2022/01/19 07:44:46;;;;;;;98.20;40.42;;;;;;;;;;5054521;28;20045;-67
2022/01/19 07:47:12;;;;;;;84.75;36.65;;;;;;;;;;5055599;28;20058;-67
2022/01/19 07:49:38;;;;;;;85.95;39.28;;;;;;;;;;5055866;28;20450;-66
2022/01/19 07:52:04;;;;;;;80.22;36.58;;;;;;;;;;5054261;28;20045;-66
2022/01/19 07:54:30;;;;;;;81.97;37.13;;;;;;;;;;5055882;28;20399;-67
2022/01/19 07:56:56;;;;;;;85.57;38.10;;;;;;;;;;5054502;28;20048;-67
2022/01/19 07:59:22;;;;;;;73.90;37.22;;;;;;;;;;5055228;28;20048;-67
2022/01/19 08:01:48;;;;;;;76.75;35.95;;;;;;;;;;5055432;28;20047;-67
2022/01/19 08:04:14;;;;;;;83.07;37.55;;;;;;;;;;5053917;28;20045;-68
2022/01/19 08:06:40;;;;;;;71.72;36.25;;;;;;;;;;5053982;28;20398;-67
2022/01/19 08:09:07;;;;;;;75.45;36.53;;;;;;;;;;5053941;28;20041;-68
2022/01/19 08:11:33;;;;;;;77.60;35.22;;;;;;;;;;5053999;28;20055;-68
2022/01/19 08:13:59;;;;;;;74.57;36.22;;;;;;;;;;5053986;28;20045;-67
2022/01/19 08:16:25;;;;;;;78.70;36.53;;;;;;;;;;5055269;28;20040;-67
2022/01/19 08:18:51;;;;;;;72.47;35.53;;;;;;;;;;5053689;28;20088;-67
2022/01/19 08:21:17;;;;;;;79.10;36.53;;;;;;;;;;5054983;28;20069;-67
2022/01/19 08:23:43;;;;;;;68.95;34.13;;;;;;;;;;5055278;28;20048;-67
2022/01/19 08:26:13;;;;;;;75.35;35.65;;;;;;;;;;5037715;28;20045;-67
2022/01/19 08:28:39;;;;;;;74.03;36.15;;;;;;;;;;5053484;28;20053;-67
2022/01/19 08:31:05;;;;;;;69.55;34.38;;;;;;;;;;5035758;28;20041;-67
2022/01/19 08:33:31;;;;;;;82.03;37.30;;;;;;;;;;5053445;28;20049;-68
2022/01/19 08:35:57;;;;;;;92.10;38.15;;;;;;;;;;5036868;28;20057;-68
2022/01/19 08:38:23;;;;;;;82.35;35.63;;;;;;;;;;5036881;28;20106;-67
2022/01/19 08:40:50;;;;;;;109.82;41.53;;;;;;;;;;5036767;28;20497;-67
2022/01/19 08:43:16;;;;;;;84.15;36.38;;;;;;;;;;5053473;28;20045;-68
2022/01/19 08:45:42;;;;;;;71.25;35.35;;;;;;;;;;5053413;28;20079;-68
2022/01/19 08:48:08;;;;;;;88.35;37.85;;;;;;;;;;5053209;28;20555;-67
2022/01/19 08:50:35;;;;;;;78.40;35.45;;;;;;;;;;5054520;28;20040;-68
2022/01/19 08:53:01;;;;;;;82.28;37.38;;;;;;;;;;5036558;28;20041;-67
2022/01/19 08:55:27;;;;;;;76.88;35.40;;;;;;;;;;5053037;28;20051;-67
2022/01/19 08:57:53;;;;;;;110.72;38.83;;;;;;;;;;5054088;28;20454;-67
2022/01/19 09:00:21;;;;;;;77.82;35.58;;;;;;;;;;5053084;28;20087;-68
2022/01/19 09:02:47;;;;;;;106.47;41.63;;;;;;;;;;5053014;28;20053;-67
2022/01/19 09:05:14;;;;;;;72.80;35.78;;;;;;;;;;5053094;28;20049;-67
2022/01/19 09:07:40;;;;;;;77.53;36.05;;;;;;;;;;5054220;28;20045;-68
2022/01/19 09:10:07;;;;;;;79.78;36.25;;;;;;;;;;5052952;28;20476;-67
2022/01/19 09:12:34;;;;;;;74.32;37.25;;;;;;;;;;5052536;28;20059;-67
2022/01/19 09:15:00;;;;;;;87.28;37.42;;;;;;;;;;5036499;28;20041;-67
2022/01/19 09:17:26;;;;;;;77.13;36.22;;;;;;;;;;5053871;28;20047;-67
2022/01/19 09:19:52;;;;;;;76.18;36.47;;;;;;;;;;5052531;28;20466;-67
2022/01/19 09:22:18;;;;;;;85.10;36.33;;;;;;;;;;5052678;28;20049;-67
2022/01/19 09:24:44;;;;;;;75.75;34.72;;;;;;;;;;5035945;28;20594;-68
2022/01/19 09:27:11;;;;;;;72.20;35.00;;;;;;;;;;5036117;28;20045;-68
2022/01/19 09:29:38;;;;;;;92.13;38.00;;;;;;;;;;5052529;28;20411;-67
2022/01/19 09:32:07;;;;;;;78.72;36.33;;;;;;;;;;5053532;28;20044;-68
2022/01/19 09:34:33;;;;;;;85.35;35.88;;;;;;;;;;5052144;28;20056;-68
2022/01/19 09:36:59;;;;;;;72.88;35.33;;;;;;;;;;5053655;28;20076;-68
2022/01/19 09:39:26;;;;;;;88.05;38.55;;;;;;;;;;5035637;28;20077;-68
2022/01/19 09:41:52;;;;;;;77.07;34.03;;;;;;;;;;5035715;28;20057;-68
2022/01/19 09:44:20;;;;;;;78.60;36.28;;;;;;;;;;5035780;28;20110;-68
2022/01/19 09:46:46;;;;;;;75.03;36.30;;;;;;;;;;5052017;28;20045;-68
2022/01/19 09:49:13;;;;;;;75.68;34.97;;;;;;;;;;5052244;28;20079;-68
2022/01/19 09:51:43;;;;;;;72.55;33.83;;;;;;;;;;5052020;28;20048;-68
2022/01/19 09:54:09;;;;;;;76.13;34.80;;;;;;;;;;5035413;28;20053;-68
2022/01/19 09:56:35;;;;;;;79.82;36.28;;;;;;;;;;5051973;28;20127;-68
2022/01/19 09:59:01;;;;;;;76.75;35.90;;;;;;;;;;5053355;28;20076;-68
2022/01/19 10:01:27;;;;;;;72.85;35.03;;;;;;;;;;5035468;28;20049;-67
2022/01/19 10:03:53;;;;;;;74.45;34.13;;;;;;;;;;5035492;28;20045;-68
2022/01/19 10:06:22;;;;;;;85.85;38.08;;;;;;;;;;5053159;28;20053;-67
2022/01/19 10:08:50;;;;;;;88.13;37.58;;;;;;;;;;5051960;28;20491;-67
2022/01/19 10:11:22;;;;;;;128.95;43.08;;;;;;;;;;5051694;28;20072;-66
2022/01/19 10:17:00;;;;;;;100.25;39.60;;;;;;;;;;5053135;28;20483;-67
2022/01/19 10:19:35;;;;;;;92.13;38.35;;;;;;;;;;5051716;28;20044;-68
2022/01/19 10:22:21;;;;;;;178.52;55.25;;;;;;;;;;5051753;28;20048;-68
2022/01/19 10:24:52;;;;;;;431.95;109.82;;;;;;;;;;5051798;28;20052;-68
2022/01/19 10:27:23;;;;;;;93.13;39.90;;;;;;;;;;5051803;28;20136;-67
2022/01/19 10:29:50;;;;;;;98.10;39.75;;;;;;;;;;5053345;28;20049;-67
2022/01/19 10:32:17;;;;;;;98.82;40.33;;;;;;;;;;5052759;28;20124;-67
2022/01/19 10:34:43;;;;;;;101.57;40.13;;;;;;;;;;5051356;28;20391;-68
2022/01/19 10:37:09;;;;;;;106.35;41.28;;;;;;;;;;5051399;28;20506;-68
2022/01/19 10:39:46;;;;;;;111.80;42.38;;;;;;;;;;5051384;28;20568;-67
2022/01/19 10:42:16;;;;;;;95.55;40.45;;;;;;;;;;5052904;28;20124;-68
2022/01/19 10:44:44;;;;;;;106.68;41.92;;;;;;;;;;5051749;28;20091;-68
2022/01/19 10:47:10;;;;;;;111.07;42.78;;;;;;;;;;5034736;28;20076;-67
2022/01/19 10:49:49;;;;;;;102.00;40.97;;;;;;;;;;5025776;28;20041;-67
2022/01/19 10:52:26;;;;;;;97.15;40.33;;;;;;;;;;5047489;28;20056;-67
2022/01/19 10:54:52;;;;;;;109.32;43.42;;;;;;;;;;5036563;28;20048;-68
2022/01/19 10:57:18;;;;;;;102.70;41.05;;;;;;;;;;5056339;28;20147;-68
2022/01/19 10:59:44;;;;;;;104.88;42.33;;;;;;;;;;5038501;28;20128;-68
2022/01/19 11:02:12;;;;;;;100.60;42.40;;;;;;;;;;5055351;28;20103;-68
2022/01/19 11:04:39;;;;;;;107.82;42.25;;;;;;;;;;5055229;28;20052;-68
2022/01/19 11:07:09;;;;;;;116.13;42.22;;;;;;;;;;5056585;28;20052;-68
2022/01/19 11:09:45;;;;;;;118.63;42.33;;;;;;;;;;5055068;28;20132;-68
2022/01/19 11:12:14;;;;;;;108.53;42.85;;;;;;;;;;5056143;28;20045;-67
2022/01/19 11:14:40;;;;;;;;;;;;;;;;;;5038536;28;20048;-68
2022/01/19 11:17:07;;;;;;;113.85;43.28;;;;;;;;;;5054461;28;19924;-68
2022/01/19 11:19:36;;;;;;;108.93;41.55;;;;;;;;;;5040777;28;20053;-67
2022/01/19 11:22:17;;;;;;;132.35;46.58;;;;;;;;;;5036034;28;20053;-67
2022/01/19 11:24:49;;;;;;;116.93;44.17;;;;;;;;;;5034769;28;20503;-67
2022/01/19 11:27:15;;;;;;;133.48;46.13;;;;;;;;;;5034537;28;20048;-67
2022/01/19 11:29:41;;;;;;;119.97;44.45;;;;;;;;;;5034424;28;20041;-67
2022/01/19 11:32:20;;;;;;;112.10;42.05;;;;;;;;;;5018078;28;20048;-67
2022/01/19 11:34:50;;;;;;;130.65;44.65;;;;;;;;;;5035572;28;20128;-68
2022/01/19 11:37:31;;;;;;;119.35;42.58;;;;;;;;;;5017968;28;20061;-67
2022/01/19 11:40:03;;;;;;;115.30;42.80;;;;;;;;;;5018257;28;20047;-66
2022/01/19 11:42:29;;;;;;;128.18;44.35;;;;;;;;;;5018194;28;20492;-67
2022/01/19 11:44:55;;;;;;;137.18;46.65;;;;;;;;;;5034520;28;20063;-67
2022/01/19 11:47:23;;;;;;;179.52;54.28;;;;;;;;;;5035521;28;20448;-67
2022/01/19 11:49:51;;;;;;;124.80;43.33;;;;;;;;;;5034333;28;20403;-67
2022/01/19 11:52:22;;;;;;;126.45;44.00;;;;;;;;;;5035841;28;20426;-67
2022/01/19 11:54:48;;;;;;;112.13;43.80;;;;;;;;;;5033743;28;20057;-67
2022/01/19 11:57:16;;;;;;;113.65;39.88;;;;;;;;;;5054068;28;20076;-68
2022/01/19 11:59:50;;;;;;;126.75;43.70;;;;;;;;;;5055376;28;20049;-68
2022/01/19 12:02:32;;;;;;;126.68;44.47;;;;;;;;;;5054470;28;20098;-66
2022/01/19 12:04:58;;;;;;;137.50;45.33;;;;;;;;;;5054039;28;20052;-66
2022/01/19 12:07:44;;;;;;;125.25;43.75;;;;;;;;;;5037527;28;20045;-66
2022/01/19 12:10:15;;;;;;;137.60;45.58;;;;;;;;;;5055067;28;20110;-67
2022/01/19 12:12:55;;;;;;;139.57;46.33;;;;;;;;;;5053725;28;20376;-67
2022/01/19 12:15:40;;;;;;;141.32;44.25;;;;;;;;;;5055390;28;20055;-67
2022/01/19 12:18:10;;;;;;;140.93;44.97;;;;;;;;;;5054090;28;20131;-67
2022/01/19 12:20:52;;;;;;;133.23;44.67;;;;;;;;;;5054967;28;20615;-67
2022/01/19 12:23:44;;;;;;;130.18;45.20;;;;;;;;;;5053568;28;20143;-67
2022/01/19 12:26:10;;;;;;;118.53;44.17;;;;;;;;;;5052094;28;20049;-67
2022/01/19 12:28:45;;;;;;;131.90;44.50;;;;;;;;;;5055019;28;20046;-67
2022/01/19 12:31:30;;;;;;;130.05;42.42;;;;;;;;;;5054765;28;20103;-68
2022/01/19 12:34:07;;;;;;;127.80;44.78;;;;;;;;;;5053656;28;20128;-67
2022/01/19 12:36:42;;;;;;;121.80;43.72;;;;;;;;;;5054894;28;20436;-68
2022/01/19 12:39:26;;;;;;;125.00;43.80;;;;;;;;;;5053698;28;20091;-68
2022/01/19 12:42:04;;;;;;;113.40;42.72;;;;;;;;;;5054668;28;20037;-67
2022/01/19 12:44:36;;;;;;;117.97;43.40;;;;;;;;;;5051305;28;20112;-66
2022/01/19 12:47:06;;;;;;;115.82;42.67;;;;;;;;;;5053022;28;20048;-67
2022/01/19 12:49:35;;;;;;;121.75;44.25;;;;;;;;;;5036915;28;20043;-66
2022/01/19 12:52:14;;;;;;;128.00;46.25;;;;;;;;;;5052458;28;20107;-67
2022/01/19 12:54:40;;;;;;;122.28;45.00;;;;;;;;;;5054357;28;20047;-67
2022/01/19 12:57:06;;;;;;;116.15;43.67;;;;;;;;;;5054144;28;20080;-67
2022/01/19 12:59:33;;;;;;;111.88;43.35;;;;;;;;;;5053935;28;20071;-68
2022/01/19 13:02:00;;;;;;;117.85;43.70;;;;;;;;;;5053158;28;20045;-65
2022/01/19 13:04:28;;;;;;;127.50;47.80;;;;;;;;;;5054091;28;20120;-66
2022/01/19 13:06:56;;;;;;;110.78;42.55;;;;;;;;;;5053006;28;20049;-67
2022/01/19 13:09:36;;;;;;;117.07;44.25;;;;;;;;;;5053993;28;20492;-66
2022/01/19 13:12:14;;;;;;;107.47;42.17;;;;;;;;;;5053609;28;20045;-67
2022/01/19 13:14:40;;;;;;;114.78;43.88;;;;;;;;;;5035978;28;20071;-67
2022/01/19 13:17:06;;;;;;;115.65;44.33;;;;;;;;;;5052051;28;20041;-67
2022/01/19 13:19:32;;;;;;;128.05;45.90;;;;;;;;;;5052815;28;20453;-67
2022/01/19 13:22:04;;;;;;;115.38;44.10;;;;;;;;;;5053820;28;20045;-67
2022/01/19 13:24:32;;;;;;;128.73;45.95;;;;;;;;;;5053560;28;20518;-67
2022/01/19 13:27:00;;;;;;;117.40;43.58;;;;;;;;;;5052513;28;20144;-65
2022/01/19 13:29:40;;;;;;;109.70;43.70;;;;;;;;;;5053955;28;20084;-66
2022/01/19 13:32:11;;;;;;;117.20;44.30;;;;;;;;;;5053845;28;20052;-66
2022/01/19 13:34:56;;;;;;;108.30;43.97;;;;;;;;;;5035557;28;20061;-68
2022/01/19 13:37:31;;;;;;;117.15;43.97;;;;;;;;;;5051654;28;20647;-68
2022/01/19 13:39:59;;;;;;;105.22;41.28;;;;;;;;;;5052210;28;20056;-68
2022/01/19 13:42:38;;;;;;;120.85;44.67;;;;;;;;;;5051863;28;20049;-67
2022/01/19 13:45:10;;;;;;;110.95;41.92;;;;;;;;;;5052078;28;20120;-66
2022/01/19 13:50:41;;;;;;;118.25;43.70;;;;;;;;;;5031594;28;20567;-66
2022/01/19 13:53:07;;;;;;;102.38;40.53;;;;;;;;;;5040875;28;20447;-66
2022/01/19 13:55:33;;;;;;;113.50;41.47;;;;;;;;;;5031899;28;20095;-66
2022/01/19 13:58:09;;;;;;;103.10;40.95;;;;;;;;;;5031968;28;20140;-66
2022/01/19 14:00:35;;;;;;;104.03;41.65;;;;;;;;;;5015449;28;20069;-66
2022/01/19 14:03:03;;;;;;;109.65;41.85;;;;;;;;;;5031846;28;20484;-67
2022/01/19 14:05:40;;;;;;;97.63;40.20;;;;;;;;;;5046604;28;20053;-67
2022/01/19 14:08:07;;;;;;;103.25;40.03;;;;;;;;;;5052887;28;20114;-66
2022/01/19 14:10:47;;;;;;;104.75;41.13;;;;;;;;;;5051735;28;20041;-67
2022/01/19 14:13:22;;;;;;;91.55;38.97;;;;;;;;;;5051355;28;20048;-67
2022/01/19 14:15:48;;;;;;;92.55;38.00;;;;;;;;;;5051959;28;20049;-68
2022/01/19 14:18:14;;;;;;;93.05;37.95;;;;;;;;;;5051207;28;20049;-68
2022/01/19 14:20:40;;;;;;;99.97;40.38;;;;;;;;;;5050675;28;20044;-67
2022/01/19 14:23:13;;;;;;;98.72;41.20;;;;;;;;;;5052740;28;20052;-67
2022/01/19 14:25:39;;;;;;;94.20;39.03;;;;;;;;;;5051852;28;20063;-67
2022/01/19 14:28:15;;;;;;;96.68;39.85;;;;;;;;;;5052554;28;20491;-68
2022/01/19 14:30:42;;;;;;;92.95;39.25;;;;;;;;;;5045511;28;20072;-68
2022/01/19 14:33:09;;;;;;;89.95;38.28;;;;;;;;;;5035659;28;20081;-67
2022/01/19 14:35:41;;;;;;;91.82;40.05;;;;;;;;;;5036451;28;20139;-67
2022/01/19 14:38:10;;;;;;;105.38;42.97;;;;;;;;;;5037001;28;20057;-67
2022/01/19 14:40:36;;;;;;;;;;;;;;;;;;5046440;28;20597;-67
2022/01/19 14:43:02;;;;;;;105.28;41.00;;;;;;;;;;5055463;28;20015;-67
2022/01/19 14:45:36;;;;;;;99.13;39.65;;;;;;;;;;5038959;28;20399;-67
2022/01/19 14:48:13;;;;;;;103.50;41.95;;;;;;;;;;5055789;28;20049;-68
2022/01/19 14:50:39;;;;;;;97.82;38.72;;;;;;;;;;5056781;28;20136;-68
2022/01/19 14:53:06;;;;;;;94.53;39.78;;;;;;;;;;5055230;28;20041;-68
2022/01/19 14:55:33;;;;;;;118.13;55.10;;;;;;;;;;5054321;28;20041;-68
2022/01/19 14:58:00;;;;;;;104.30;43.63;;;;;;;;;;5057092;28;20048;-68
2022/01/19 15:00:28;;;;;;;147.43;65.18;;;;;;;;;;5056502;28;20124;-67
2022/01/19 15:03:01;;;;;;;104.35;40.65;;;;;;;;;;5057442;28;20049;-68
2022/01/19 15:05:30;;;;;;;127.07;61.80;;;;;;;;;;5057265;28;20059;-68
2022/01/19 15:07:57;;;;;;;;;;;;;;;;;;5058546;28;20048;-67
2022/01/19 15:10:23;;;;;;;111.20;46.90;;;;;;;;;;5039979;28;19970;-68
2022/01/19 15:12:53;;;;;;;113.65;41.40;;;;;;;;;;5055240;28;20436;-67
2022/01/19 15:15:24;;;;;;;119.63;50.53;;;;;;;;;;5055247;28;20108;-68
2022/01/19 15:17:57;;;;;;;102.28;42.75;;;;;;;;;;5065726;28;20045;-68
2022/01/19 15:20:27;;;;;;;102.78;40.83;;;;;;;;;;5058132;28;20130;-67
2022/01/19 15:22:59;;;;;;;111.00;43.17;;;;;;;;;;5046487;28;20049;-68
2022/01/19 15:25:26;;;;;;;98.63;39.45;;;;;;;;;;5036149;28;20399;-68
2022/01/19 15:27:52;;;;;;;98.90;39.00;;;;;;;;;;5034771;28;20128;-66
2022/01/19 15:30:18;;;;;;;102.10;40.47;;;;;;;;;;5039452;28;20067;-68
2022/01/19 15:32:44;;;;;;;110.85;44.65;;;;;;;;;;5040967;28;20041;-68
2022/01/19 15:35:11;;;;;;;112.95;43.28;;;;;;;;;;5037025;28;20104;-67
2022/01/19 15:37:38;;;;;;;111.82;42.88;;;;;;;;;;5034417;28;20451;-67
2022/01/19 15:40:12;;;;;;;118.45;44.08;;;;;;;;;;5034165;28;20049;-68
2022/01/19 15:42:38;;;;;;;114.57;40.88;;;;;;;;;;5037112;28;20136;-68